createdAt,value
2018-02-18T00:00:13.738Z,70.12
2018-02-18T00:02:43.169Z,72.70
2018-02-18T00:05:12.936Z,67.12
2018-02-18T00:07:42.097Z,69.03
2018-02-18T00:10:11.236Z,66.18
2018-02-18T00:12:40.561Z,70.32
2018-02-18T00:15:12.101Z,71.10
2018-02-18T00:17:41.178Z,69.22
2018-02-18T00:20:10.075Z,71.05
2018-02-18T00:22:39.394Z,72.47
2018-02-18T00:25:08.715Z,74.45
2018-02-18T00:27:38.045Z,71.37
2018-02-18T00:30:07.419Z,70.43
2018-02-18T00:32:36.880Z,79.03
2018-02-18T00:35:06.256Z,77.32
2018-02-18T00:37:35.600Z,80.12
2018-02-18T00:40:04.870Z,76.07
2018-02-18T00:42:33.857Z,77.95
2018-02-18T00:45:02.891Z,67.40
2018-02-18T00:47:31.902Z,69.97
2018-02-18T00:50:01.402Z,67.40
2018-02-18T00:52:30.756Z,58.28
2018-02-18T00:54:59.833Z,62.10
2018-02-18T00:57:29.204Z,59.17
2018-02-18T00:59:58.270Z,48.00
2018-02-18T01:02:27.634Z,52.90
2018-02-18T01:04:56.790Z,45.90
2018-02-18T01:07:26.395Z,49.00
2018-02-18T01:09:55.846Z,47.05
2018-02-18T01:12:25.418Z,49.53
2018-02-18T01:14:54.566Z,51.42
2018-02-18T01:17:23.755Z,56.70
2018-02-18T01:19:53.228Z,52.22
2018-02-18T01:22:22.731Z,46.83
2018-02-18T01:24:51.853Z,48.70
2018-02-18T01:27:21.106Z,51.08
2018-02-18T01:29:50.258Z,45.20
2018-02-18T01:32:19.423Z,48.90
2018-02-18T01:34:48.816Z,45.42
2018-02-18T01:37:17.905Z,51.80
2018-02-18T01:39:47.117Z,49.70
2018-02-18T01:42:16.698Z,53.30
2018-02-18T01:44:45.717Z,56.65
2018-02-18T01:47:14.871Z,49.53
2018-02-18T01:49:43.990Z,50.00
2018-02-18T01:52:13.343Z,51.37
2018-02-18T01:54:42.361Z,50.33
2018-02-18T01:57:11.351Z,56.13
2018-02-18T01:59:40.200Z,56.10
2018-02-18T02:02:09.083Z,55.35
2018-02-18T02:04:39.124Z,61.00
2018-02-18T02:07:08.182Z,50.65
2018-02-18T02:09:37.458Z,55.63
2018-02-18T02:12:06.739Z,57.03
2018-02-18T02:14:35.795Z,60.17
2018-02-18T02:17:04.754Z,54.65
2018-02-18T02:19:34.187Z,56.45
2018-02-18T02:22:03.466Z,54.90
2018-02-18T02:24:32.505Z,57.20
2018-02-18T02:27:01.675Z,65.37
2018-02-18T02:29:30.818Z,57.33
2018-02-18T02:32:00.102Z,62.28
2018-02-18T02:34:29.203Z,66.95
2018-02-18T02:36:58.355Z,66.40
2018-02-18T02:39:27.875Z,65.25
2018-02-18T02:41:57.137Z,65.65
2018-02-18T02:44:26.534Z,62.03
2018-02-18T02:46:56.084Z,63.45
2018-02-18T02:49:25.101Z,62.85
2018-02-18T02:51:54.677Z,63.80
2018-02-18T02:54:23.882Z,64.03
2018-02-18T02:56:53.170Z,67.05
2018-02-18T02:59:22.267Z,63.17
2018-02-18T03:01:51.397Z,66.95
2018-02-18T03:04:20.869Z,70.40
2018-02-18T03:06:49.897Z,64.25
2018-02-18T03:09:19.156Z,65.12
2018-02-18T03:11:48.474Z,70.47
2018-02-18T03:14:18.250Z,68.55
2018-02-18T03:16:47.483Z,65.22
2018-02-18T03:19:16.710Z,67.32
2018-02-18T03:21:45.984Z,68.18
2018-02-18T03:24:15.591Z,66.28
2018-02-18T03:26:44.870Z,63.67
2018-02-18T03:29:13.882Z,62.22
2018-02-18T03:31:43.266Z,59.90
2018-02-18T03:34:12.509Z,58.92
2018-02-18T03:36:41.417Z,54.33
2018-02-18T03:39:10.462Z,55.05
2018-02-18T03:41:39.838Z,54.13
2018-02-18T03:44:09.126Z,55.75
2018-02-18T03:46:38.298Z,55.72
2018-02-18T03:49:07.719Z,54.50
2018-02-18T03:51:37.378Z,55.75
2018-02-18T03:54:06.662Z,56.65
2018-02-18T03:56:35.977Z,55.85
2018-02-18T03:59:05.380Z,56.72
2018-02-18T04:01:34.680Z,60.90
2018-02-18T04:04:03.913Z,55.85
2018-02-18T04:06:44.352Z,57.78
2018-02-18T04:09:15.997Z,61.88
2018-02-18T04:11:44.989Z,59.05
2018-02-18T04:14:14.206Z,65.72
2018-02-18T04:16:43.527Z,64.25
2018-02-18T04:19:12.681Z,62.35
2018-02-18T04:21:41.813Z,70.12
2018-02-18T04:24:11.194Z,58.67
2018-02-18T04:26:40.635Z,71.50
2018-02-18T04:29:09.887Z,76.10
2018-02-18T04:31:39.121Z,74.65
2018-02-18T04:34:08.714Z,71.60
2018-02-18T04:36:37.711Z,74.65
2018-02-18T04:39:06.826Z,76.18
2018-02-18T04:41:35.978Z,74.57
2018-02-18T04:44:05.242Z,73.68
2018-02-18T04:46:34.918Z,73.07
2018-02-18T04:49:04.074Z,78.80
2018-02-18T04:51:33.114Z,79.82
2018-02-18T04:54:02.697Z,80.20
2018-02-18T04:56:31.950Z,82.53
2018-02-18T04:59:01.499Z,80.68
2018-02-18T05:01:30.688Z,84.07
2018-02-18T05:03:59.858Z,76.15
2018-02-18T05:06:28.714Z,79.47
2018-02-18T05:08:57.749Z,74.75
2018-02-18T05:11:26.939Z,84.43
2018-02-18T05:13:56.201Z,87.20
2018-02-18T05:16:25.626Z,83.20
2018-02-18T05:18:54.606Z,93.47
2018-02-18T05:21:23.869Z,87.37
2018-02-18T05:23:53.790Z,87.82
2018-02-18T05:26:23.527Z,97.95
2018-02-18T05:28:52.819Z,87.95
2018-02-18T05:31:21.830Z,93.57
2018-02-18T05:33:50.962Z,100.75
2018-02-18T05:36:19.949Z,90.95
2018-02-18T05:38:49.090Z,92.95
2018-02-18T05:41:18.171Z,99.95
2018-02-18T05:43:47.814Z,95.05
2018-02-18T05:46:17.213Z,80.78
2018-02-18T05:48:46.526Z,86.72
2018-02-18T05:51:15.990Z,86.37
2018-02-18T05:53:45.322Z,78.32
2018-02-18T05:56:14.715Z,74.90
2018-02-18T05:58:43.989Z,70.05
2018-02-18T06:01:13.021Z,73.40
2018-02-18T06:03:42.111Z,70.12
2018-02-18T06:06:11.446Z,71.47
2018-02-18T06:08:40.547Z,70.07
2018-02-18T06:11:09.872Z,71.35
2018-02-18T06:13:39.255Z,71.57
2018-02-18T06:16:08.339Z,69.65
2018-02-18T06:18:37.486Z,75.18
2018-02-18T06:21:06.865Z,72.40
2018-02-18T06:23:36.175Z,67.80
2018-02-18T06:26:05.411Z,70.95
2018-02-18T06:28:35.234Z,72.57
2018-02-18T06:31:04.492Z,83.57
2018-02-18T06:33:34.094Z,75.35
2018-02-18T06:36:03.367Z,79.72
2018-02-18T06:38:33.010Z,81.75
2018-02-18T06:41:02.298Z,78.05
2018-02-18T06:43:31.162Z,76.55
2018-02-18T06:46:00.707Z,68.78
2018-02-18T06:48:30.104Z,57.75
2018-02-18T06:50:59.363Z,50.22
2018-02-18T06:53:28.562Z,46.90
2018-02-18T06:55:57.907Z,47.08
2018-02-18T06:58:27.301Z,42.95
2018-02-18T07:00:56.561Z,46.05
2018-02-18T07:03:25.837Z,49.08
2018-02-18T07:05:54.999Z,44.05
2018-02-18T07:08:24.559Z,49.22
2018-02-18T07:10:53.838Z,46.25
2018-02-18T07:13:22.846Z,50.15
2018-02-18T07:15:51.841Z,63.40
2018-02-18T07:18:21.062Z,65.55
2018-02-18T07:20:50.389Z,62.33
2018-02-18T07:23:19.558Z,57.78
2018-02-18T07:25:48.522Z,60.58
2018-02-18T07:28:17.521Z,56.25
2018-02-18T07:30:46.837Z,57.65
2018-02-18T07:33:16.291Z,53.67
2018-02-18T07:35:45.587Z,58.55
2018-02-18T07:38:14.674Z,59.00
2018-02-18T07:40:44.341Z,66.10
2018-02-18T07:43:13.218Z,65.05
2018-02-18T07:45:42.519Z,60.92
2018-02-18T07:48:11.979Z,64.70
2018-02-18T07:50:41.113Z,74.80
2018-02-18T07:53:10.390Z,65.15
2018-02-18T07:55:39.694Z,61.33
2018-02-18T07:58:08.770Z,65.20
2018-02-18T08:00:38.178Z,69.25
2018-02-18T08:03:07.158Z,67.20
2018-02-18T08:05:36.153Z,57.20
2018-02-18T08:08:05.326Z,51.83
2018-02-18T08:10:34.768Z,63.13
2018-02-18T08:13:04.239Z,51.22
2018-02-18T08:15:33.361Z,48.65
2018-02-18T08:18:02.566Z,50.90
2018-02-18T08:20:32.081Z,51.10
2018-02-18T08:23:01.122Z,55.95
2018-02-18T08:25:30.011Z,52.20
2018-02-18T08:27:59.139Z,42.72
2018-02-18T08:30:28.182Z,51.58
2018-02-18T08:32:57.274Z,33.17
2018-02-18T08:35:26.393Z,35.60
2018-02-18T08:37:55.678Z,25.50
2018-02-18T08:40:24.946Z,34.95
2018-02-18T08:42:54.148Z,32.05
2018-02-18T08:45:23.653Z,24.25
2018-02-18T08:47:52.679Z,21.05
2018-02-18T08:50:22.218Z,24.45
2018-02-18T08:52:51.541Z,23.25
2018-02-18T08:55:20.751Z,28.92
2018-02-18T08:57:49.757Z,22.52
2018-02-18T09:00:19.027Z,24.73
2018-02-18T09:02:48.237Z,23.42
2018-02-18T09:05:17.542Z,22.42
2018-02-18T09:07:46.559Z,24.15
2018-02-18T09:10:15.679Z,28.65
2018-02-18T09:12:44.678Z,27.37
2018-02-18T09:15:13.818Z,31.15
2018-02-18T09:17:42.704Z,30.35
2018-02-18T09:20:12.120Z,30.45
2018-02-18T09:22:41.166Z,31.15
2018-02-18T09:25:10.189Z,27.60
2018-02-18T09:27:39.492Z,29.48
2018-02-18T09:30:08.663Z,25.58
2018-02-18T09:32:37.797Z,27.75
2018-02-18T09:35:08.048Z,29.65
2018-02-18T09:37:37.324Z,27.27
2018-02-18T09:40:06.619Z,27.02
2018-02-18T09:42:35.856Z,30.67
2018-02-18T09:45:05.430Z,26.17
2018-02-18T09:47:34.590Z,28.10
2018-02-18T09:50:03.931Z,27.73
2018-02-18T09:52:33.534Z,25.67
2018-02-18T09:55:02.549Z,30.03
2018-02-18T09:57:32.071Z,24.67
2018-02-18T10:00:01.054Z,24.58
2018-02-18T10:02:30.171Z,30.30
2018-02-18T10:04:59.417Z,30.17
2018-02-18T10:07:28.823Z,24.17
2018-02-18T10:09:57.693Z,24.27
2018-02-18T10:12:26.642Z,23.05
2018-02-18T10:14:56.212Z,21.35
2018-02-18T10:17:26.042Z,20.55
2018-02-18T10:19:55.625Z,21.25
2018-02-18T10:22:24.728Z,18.12
2018-02-18T10:24:53.966Z,20.15
2018-02-18T10:27:22.957Z,20.50
2018-02-18T10:29:52.161Z,18.00
2018-02-18T10:32:21.526Z,18.00
2018-02-18T10:34:56.798Z,18.27
2018-02-18T10:37:31.751Z,16.17
2018-02-18T10:40:01.202Z,19.98
2018-02-18T10:42:30.651Z,18.25
2018-02-18T10:45:00.013Z,20.37
2018-02-18T10:47:29.141Z,19.80
2018-02-18T10:49:58.262Z,19.10
2018-02-18T10:52:27.747Z,19.70
2018-02-18T10:54:57.113Z,17.95
2018-02-18T10:57:26.207Z,25.42
2018-02-18T10:59:55.401Z,19.42
2018-02-18T11:02:24.863Z,19.33
2018-02-18T11:04:54.010Z,18.12
2018-02-18T11:07:23.451Z,19.75
2018-02-18T11:09:52.646Z,17.17
2018-02-18T11:12:21.802Z,21.00
2018-02-18T11:14:50.901Z,19.48
2018-02-18T11:17:19.988Z,19.95
2018-02-18T11:19:49.236Z,22.08
2018-02-18T11:22:18.430Z,22.52
2018-02-18T11:24:48.001Z,21.25
2018-02-18T11:27:16.982Z,19.20
2018-02-18T11:29:46.510Z,20.65
2018-02-18T11:32:15.494Z,21.12
2018-02-18T11:34:44.698Z,23.23
2018-02-18T11:37:13.718Z,20.35
2018-02-18T11:39:42.627Z,23.15
2018-02-18T11:42:12.064Z,24.27
2018-02-18T11:44:41.627Z,24.42
2018-02-18T11:47:10.756Z,21.23
2018-02-18T11:49:40.343Z,21.48
2018-02-18T11:52:09.374Z,20.77
2018-02-18T11:54:38.582Z,19.37
2018-02-18T11:57:07.823Z,19.30
2018-02-18T11:59:37.346Z,16.75
2018-02-18T12:02:06.629Z,17.08
2018-02-18T12:04:35.984Z,17.25
2018-02-18T12:07:05.188Z,19.67
2018-02-18T12:09:34.324Z,21.65
2018-02-18T12:12:03.694Z,19.77
2018-02-18T12:14:32.999Z,19.48
2018-02-18T12:17:02.535Z,24.80
2018-02-18T12:19:31.837Z,23.08
2018-02-18T12:22:01.034Z,14.98
2018-02-18T12:24:30.806Z,21.95
2018-02-18T12:27:00.045Z,15.05
2018-02-18T12:29:29.315Z,15.93
2018-02-18T12:31:58.197Z,16.12
2018-02-18T12:34:27.471Z,15.33
2018-02-18T12:36:56.547Z,15.95
2018-02-18T12:39:25.662Z,17.25
2018-02-18T12:41:54.671Z,18.15
2018-02-18T12:44:23.913Z,16.35
2018-02-18T12:46:53.019Z,17.40
2018-02-18T12:49:22.322Z,15.20
2018-02-18T12:51:51.895Z,16.60
2018-02-18T12:54:21.228Z,16.23
2018-02-18T12:56:50.603Z,15.37
2018-02-18T12:59:19.982Z,18.20
2018-02-18T13:01:49.187Z,15.50
2018-02-18T13:04:18.221Z,15.67
2018-02-18T13:06:47.583Z,17.58
2018-02-18T13:09:17.104Z,17.73
2018-02-18T13:11:46.345Z,16.00
2018-02-18T13:14:15.693Z,18.48
2018-02-18T13:16:44.733Z,16.98
2018-02-18T13:19:13.891Z,13.27
2018-02-18T13:21:43.147Z,17.35
2018-02-18T13:24:12.218Z,25.50
2018-02-18T13:26:41.612Z,15.40
2018-02-18T13:29:10.998Z,18.37
2018-02-18T13:31:40.053Z,16.70
2018-02-18T13:34:09.396Z,16.95
2018-02-18T13:36:38.658Z,17.98
2018-02-18T13:39:08.022Z,16.50
2018-02-18T13:41:37.298Z,15.90
2018-02-18T13:44:06.594Z,17.58
2018-02-18T13:46:35.550Z,16.45
2018-02-18T13:49:04.699Z,18.55
2018-02-18T13:51:34.287Z,15.57
2018-02-18T13:54:03.622Z,15.23
2018-02-18T13:56:32.598Z,16.10
2018-02-18T13:59:01.926Z,14.93
2018-02-18T14:01:31.076Z,14.93
2018-02-18T14:04:00.007Z,17.20
2018-02-18T14:06:29.263Z,14.48
2018-02-18T14:08:58.334Z,17.55
2018-02-18T14:11:27.691Z,13.45
2018-02-18T14:13:56.962Z,18.93
2018-02-18T14:16:26.078Z,19.53
2018-02-18T14:18:55.679Z,28.13
2018-02-18T14:21:25.325Z,18.83
2018-02-18T14:23:54.302Z,35.10
2018-02-18T14:26:23.282Z,23.83
2018-02-18T14:28:52.360Z,24.33
2018-02-18T14:31:21.657Z,23.13
2018-02-18T14:33:50.743Z,17.67
2018-02-18T14:36:19.674Z,24.52
2018-02-18T14:38:48.686Z,19.65
2018-02-18T14:41:29.203Z,19.10
2018-02-18T14:44:09.543Z,18.67
2018-02-18T14:46:50.090Z,17.58
2018-02-18T14:49:30.394Z,18.02
2018-02-18T14:52:10.651Z,18.73
2018-02-18T14:57:44.777Z,22.90
2018-02-18T15:00:13.850Z,18.43
2018-02-18T15:02:43.482Z,18.90
2018-02-18T15:05:12.811Z,18.42
2018-02-18T15:07:42.291Z,18.73
2018-02-18T15:10:12.434Z,18.10
2018-02-18T15:12:41.875Z,17.75
2018-02-18T15:15:10.966Z,18.27
2018-02-18T15:17:40.194Z,18.00
2018-02-18T15:20:09.194Z,19.30
2018-02-18T15:22:38.576Z,16.27
2018-02-18T15:25:07.846Z,18.08
2018-02-18T15:27:36.982Z,17.85
2018-02-18T15:30:06.050Z,18.35
2018-02-18T15:32:35.325Z,19.30
2018-02-18T15:35:04.409Z,19.55
2018-02-18T15:37:33.562Z,19.02
2018-02-18T15:40:03.103Z,19.45
2018-02-18T15:42:32.401Z,18.60
2018-02-18T15:45:01.702Z,19.40
2018-02-18T15:47:30.694Z,20.85
2018-02-18T15:49:59.638Z,23.10
2018-02-18T15:52:28.493Z,21.15
2018-02-18T15:54:57.854Z,18.42
2018-02-18T15:57:26.731Z,18.48
2018-02-18T15:59:55.598Z,17.77
2018-02-18T16:02:24.575Z,21.58
2018-02-18T16:04:53.997Z,16.98
2018-02-18T16:07:23.127Z,20.02
2018-02-18T16:09:52.013Z,18.90
2018-02-18T16:12:21.075Z,18.17
2018-02-18T16:14:50.378Z,24.17
2018-02-18T16:17:19.554Z,32.03
2018-02-18T16:19:49.638Z,26.95
2018-02-18T16:22:19.059Z,21.45
2018-02-18T16:24:48.336Z,22.10
2018-02-18T16:27:17.674Z,19.60
2018-02-18T16:29:46.947Z,24.08
2018-02-18T16:32:20.911Z,20.33
2018-02-18T16:34:55.227Z,20.70
2018-02-18T16:37:24.479Z,22.77
2018-02-18T16:39:53.562Z,24.90
2018-02-18T16:42:22.866Z,24.77
2018-02-18T16:44:52.246Z,20.85
2018-02-18T16:47:21.611Z,20.37
2018-02-18T16:49:51.202Z,23.35
2018-02-18T16:52:20.470Z,22.23
2018-02-18T16:54:49.586Z,22.35
2018-02-18T16:57:18.696Z,21.50
2018-02-18T16:59:47.611Z,22.10
2018-02-18T17:02:17.054Z,23.38
2018-02-18T17:04:46.165Z,23.40
2018-02-18T17:07:15.213Z,26.12
2018-02-18T17:09:44.401Z,22.55
2018-02-18T17:12:13.335Z,26.08
2018-02-18T17:14:42.466Z,18.62
2018-02-18T17:17:11.773Z,18.27
2018-02-18T17:19:40.980Z,21.50
2018-02-18T17:22:10.354Z,19.50
2018-02-18T17:24:39.680Z,20.25
2018-02-18T17:27:08.961Z,20.08
2018-02-18T17:29:38.132Z,20.08
2018-02-18T17:32:07.467Z,18.87
2018-02-18T17:34:36.731Z,19.52
2018-02-18T17:37:05.639Z,21.10
2018-02-18T17:39:34.959Z,23.25
2018-02-18T17:42:04.167Z,20.92
2018-02-18T17:44:33.429Z,20.67
2018-02-18T17:47:02.606Z,19.50
2018-02-18T17:49:31.791Z,22.15
2018-02-18T17:52:01.339Z,20.45
2018-02-18T17:54:30.982Z,20.98
2018-02-18T17:57:00.138Z,21.85
2018-02-18T17:59:29.302Z,19.27
2018-02-18T18:01:58.334Z,21.02
2018-02-18T18:04:27.319Z,22.65
2018-02-18T18:06:56.555Z,20.85
2018-02-18T18:09:25.864Z,20.83
2018-02-18T18:11:55.115Z,24.08
2018-02-18T18:14:23.965Z,20.27
2018-02-18T18:16:53.024Z,19.10
2018-02-18T18:19:22.298Z,22.58
2018-02-18T18:21:51.638Z,21.75
2018-02-18T18:24:20.660Z,17.67
2018-02-18T18:26:49.991Z,20.48
2018-02-18T18:29:19.078Z,27.33
2018-02-18T18:31:48.476Z,24.12
2018-02-18T18:34:17.635Z,23.17
2018-02-18T18:36:46.606Z,24.83
2018-02-18T18:39:15.558Z,19.90
2018-02-18T18:41:44.746Z,25.25
2018-02-18T18:44:13.957Z,25.62
2018-02-18T18:46:42.971Z,24.15
2018-02-18T18:49:12.206Z,21.70
2018-02-18T18:51:41.197Z,22.83
2018-02-18T18:54:10.467Z,22.00
2018-02-18T18:56:39.458Z,20.37
2018-02-18T18:59:08.490Z,18.00
2018-02-18T19:01:37.551Z,23.33
2018-02-18T19:04:07.106Z,25.58
2018-02-18T19:06:36.202Z,21.08
2018-02-18T19:09:05.531Z,126.15
2018-02-18T19:11:34.694Z,23.38
2018-02-18T19:14:03.713Z,22.30
2018-02-18T19:16:32.984Z,22.67
2018-02-18T19:19:02.315Z,25.88
2018-02-18T19:21:31.399Z,24.70
2018-02-18T19:24:00.654Z,26.85
2018-02-18T19:26:30.543Z,22.95
2018-02-18T19:28:59.667Z,23.20
2018-02-18T19:31:28.554Z,24.27
2018-02-18T19:33:58.035Z,20.75
2018-02-18T19:36:27.069Z,20.83
2018-02-18T19:38:56.199Z,19.77
2018-02-18T19:41:25.307Z,22.05
2018-02-18T19:43:54.424Z,21.77
2018-02-18T19:46:23.838Z,22.87
2018-02-18T19:48:53.139Z,21.85
2018-02-18T19:51:22.688Z,22.58
2018-02-18T19:53:51.666Z,25.73
2018-02-18T19:56:21.280Z,24.12
2018-02-18T19:58:50.764Z,23.73
2018-02-18T20:01:19.770Z,25.33
2018-02-18T20:03:48.783Z,26.67
2018-02-18T20:06:17.960Z,23.15
2018-02-18T20:08:47.281Z,24.92
2018-02-18T20:11:16.315Z,26.30
2018-02-18T20:13:45.790Z,21.00
2018-02-18T20:16:15.172Z,23.90
2018-02-18T20:18:44.282Z,24.48
2018-02-18T20:21:13.594Z,26.70
2018-02-18T20:23:42.902Z,25.17
2018-02-18T20:26:12.171Z,25.10
2018-02-18T20:28:41.449Z,29.85
2018-02-18T20:31:10.637Z,23.45
2018-02-18T20:33:39.703Z,21.62
2018-02-18T20:36:09.107Z,23.48
2018-02-18T20:38:38.171Z,21.65
2018-02-18T20:41:07.398Z,20.88
2018-02-18T20:43:36.631Z,20.73
2018-02-18T20:46:06.097Z,19.42
2018-02-18T20:48:36.031Z,17.83
2018-02-18T20:51:05.266Z,23.30
2018-02-18T20:53:34.572Z,21.17
2018-02-18T20:56:03.891Z,19.00
2018-02-18T20:58:32.909Z,29.10
2018-02-18T21:01:01.986Z,19.23
2018-02-18T21:03:31.183Z,19.85
2018-02-18T21:06:00.099Z,19.48
2018-02-18T21:08:29.500Z,21.62
2018-02-18T21:10:59.073Z,18.42
2018-02-18T21:13:28.367Z,17.10
2018-02-18T21:15:57.542Z,15.68
2018-02-18T21:18:26.880Z,19.10
2018-02-18T21:20:55.922Z,18.00
2018-02-18T21:23:25.097Z,18.02
2018-02-18T21:25:54.476Z,17.92
2018-02-18T21:28:23.878Z,18.42
2018-02-18T21:30:53.017Z,19.75
2018-02-18T21:33:22.033Z,20.77
2018-02-18T21:35:51.293Z,20.62
2018-02-18T21:38:20.598Z,20.88
2018-02-18T21:40:49.966Z,20.90
2018-02-18T21:43:19.193Z,19.58
2018-02-18T21:45:48.139Z,17.37
2018-02-18T21:48:17.555Z,17.58
2018-02-18T21:50:46.765Z,21.33
2018-02-18T21:53:16.063Z,16.27
2018-02-18T21:55:45.457Z,16.17
2018-02-18T21:58:14.544Z,31.55
2018-02-18T22:00:43.866Z,17.12
2018-02-18T22:03:13.014Z,18.70
2018-02-18T22:05:42.710Z,17.48
2018-02-18T22:08:11.793Z,19.80
2018-02-18T22:10:41.470Z,18.87
2018-02-18T22:13:10.743Z,21.02
2018-02-18T22:15:39.943Z,19.55
2018-02-18T22:18:09.135Z,19.12
2018-02-18T22:20:38.389Z,18.60
2018-02-18T22:23:08.277Z,21.27
2018-02-18T22:25:37.371Z,16.67
2018-02-18T22:28:06.619Z,18.10
2018-02-18T22:30:35.770Z,17.80
2018-02-18T22:33:04.945Z,17.50
2018-02-18T22:35:34.287Z,18.08
2018-02-18T22:38:04.024Z,20.40
2018-02-18T22:40:34.303Z,20.27
2018-02-18T22:43:03.822Z,17.52
2018-02-18T22:45:33.216Z,16.48
2018-02-18T22:48:02.383Z,16.08
2018-02-18T22:50:31.826Z,19.83
2018-02-18T22:53:01.431Z,17.75
2018-02-18T22:55:30.835Z,16.77
2018-02-18T22:57:59.962Z,19.48
2018-02-18T23:00:29.118Z,16.75
2018-02-18T23:02:58.457Z,18.77
2018-02-18T23:05:32.867Z,18.20
2018-02-18T23:08:02.083Z,16.50
2018-02-18T23:10:31.126Z,15.07
2018-02-18T23:13:00.151Z,17.67
2018-02-18T23:15:29.371Z,16.75
2018-02-18T23:17:58.367Z,17.35
2018-02-18T23:20:33.258Z,14.68
2018-02-18T23:23:02.090Z,15.85
2018-02-18T23:25:31.540Z,15.23
2018-02-18T23:28:00.539Z,15.90
2018-02-18T23:30:29.699Z,16.02
2018-02-18T23:32:58.739Z,16.45
2018-02-18T23:35:27.935Z,15.63
2018-02-18T23:37:57.061Z,15.70
2018-02-18T23:40:26.505Z,17.62
2018-02-18T23:42:56.049Z,17.25
2018-02-18T23:45:25.405Z,16.35
2018-02-18T23:47:55.158Z,18.42
2018-02-18T23:50:24.415Z,18.12
2018-02-18T23:52:53.474Z,19.75
2018-02-18T23:55:22.845Z,17.35
2018-02-18T23:57:52.029Z,19.40
